Time;durP1;ratioP1;P1;durP2;ratioP2;P2;SDS_P1;SDS_P2;PMS_P1;PMS_P2;Temp;Humidity;BMP_temperature;BMP_pressure;BME280_temperature;BME280_humidity;BME280_pressure;Samples;Min_cycle;Max_cycle;Signal;HPM_P1;HPM_P2
2021/07/28 00:01:21;;;;;;;7.97;4.00;;;;;;;;;;5073261;28;20286;-58
2021/07/28 00:03:46;;;;;;;6.95;4.22;;;;;;;;;;5073277;28;20070;-56
2021/07/28 00:06:21;;;;;;;8.43;4.05;;;;;;;;;;5074183;28;20032;-58
2021/07/28 00:08:47;;;;;;;8.38;3.70;;;;;;;;;;5072852;28;20008;-57
2021/07/28 00:11:13;;;;;;;9.48;3.92;;;;;;;;;;5072810;28;20024;-58
2021/07/28 00:13:38;;;;;;;7.15;4.30;;;;;;;;;;5072874;28;20028;-58
2021/07/28 00:16:09;;;;;;;9.38;4.10;;;;;;;;;;5072863;28;20024;-58
2021/07/28 00:19:10;;;;;;;7.90;4.80;;;;;;;;;;5072737;28;20024;-58
2021/07/28 00:24:10;;;;;;;10.60;5.35;;;;;;;;;;5073635;28;20082;-58
2021/07/28 00:26:35;;;;;;;10.88;6.07;;;;;;;;;;5072606;28;20052;-57
2021/07/28 00:29:00;;;;;;;9.30;6.25;;;;;;;;;;5073022;28;20024;-54
2021/07/28 00:31:26;;;;;;;11.32;6.10;;;;;;;;;;5073222;28;20031;-57
2021/07/28 00:33:51;;;;;;;12.68;6.40;;;;;;;;;;5081786;28;20153;-56
2021/07/28 00:36:16;;;;;;;11.38;5.85;;;;;;;;;;5096854;28;20087;-58
2021/07/28 00:38:42;;;;;;;12.02;6.25;;;;;;;;;;5096837;28;20091;-57
2021/07/28 00:41:07;;;;;;;10.45;5.93;;;;;;;;;;5096250;28;20124;-58
2021/07/28 00:43:32;;;;;;;11.57;5.38;;;;;;;;;;5096014;28;20015;-58
2021/07/28 00:45:58;;;;;;;10.93;5.85;;;;;;;;;;5094887;28;20089;-57
2021/07/28 00:48:23;;;;;;;12.00;6.05;;;;;;;;;;5087931;28;20092;-58
2021/07/28 00:50:48;;;;;;;9.25;5.22;;;;;;;;;;5074331;28;20104;-60
2021/07/28 00:53:18;;;;;;;14.77;6.07;;;;;;;;;;5074701;28;20427;-58
2021/07/28 00:55:44;;;;;;;11.90;5.20;;;;;;;;;;5074389;28;20469;-58
2021/07/28 00:58:09;;;;;;;9.43;5.93;;;;;;;;;;5075058;28;20529;-58
2021/07/28 01:00:35;;;;;;;9.45;5.45;;;;;;;;;;5075189;28;20028;-57
2021/07/28 01:03:00;;;;;;;12.88;5.95;;;;;;;;;;5077188;28;20029;-58
2021/07/28 01:05:25;;;;;;;9.75;5.65;;;;;;;;;;5075067;28;20389;-58
2021/07/28 01:07:50;;;;;;;11.55;6.18;;;;;;;;;;5073908;28;20070;-58
2021/07/28 01:10:16;;;;;;;9.32;5.80;;;;;;;;;;5088283;28;20523;-56
2021/07/28 01:12:44;;;;;;;9.88;5.75;;;;;;;;;;5075690;28;20439;-58
2021/07/28 01:15:12;;;;;;;9.07;5.80;;;;;;;;;;5094066;28;20099;-58
2021/07/28 01:17:37;;;;;;;10.43;6.00;;;;;;;;;;5094180;28;20070;-59
2021/07/28 01:20:05;;;;;;;11.00;5.63;;;;;;;;;;5094613;28;20467;-58
2021/07/28 01:22:31;;;;;;;10.65;6.03;;;;;;;;;;5086243;28;20024;-58
2021/07/28 01:24:57;;;;;;;9.60;5.72;;;;;;;;;;5075294;28;20027;-54
2021/07/28 01:27:23;;;;;;;10.80;5.32;;;;;;;;;;5075291;28;20534;-58
2021/07/28 01:29:49;;;;;;;10.65;6.07;;;;;;;;;;5075637;28;20035;-58
2021/07/28 01:32:15;;;;;;;10.50;5.90;;;;;;;;;;5075970;28;20016;-57
2021/07/28 01:34:40;;;;;;;12.13;5.82;;;;;;;;;;5075256;28;20052;-58
2021/07/28 01:37:06;;;;;;;10.70;5.78;;;;;;;;;;5082860;28;20024;-57
2021/07/28 01:39:32;;;;;;;12.48;6.43;;;;;;;;;;5095333;28;20024;-56
2021/07/28 01:41:58;;;;;;;10.52;5.80;;;;;;;;;;5095603;28;20039;-57
2021/07/28 01:44:23;;;;;;;8.82;5.70;;;;;;;;;;5095640;28;20107;-58
2021/07/28 01:46:49;;;;;;;9.85;6.32;;;;;;;;;;5093238;28;20047;-58
2021/07/28 01:49:14;;;;;;;13.23;6.22;;;;;;;;;;5095180;28;20406;-57
2021/07/28 01:51:42;;;;;;;12.68;6.18;;;;;;;;;;5095846;28;20024;-57
2021/07/28 01:54:07;;;;;;;10.52;6.28;;;;;;;;;;5095387;28;20028;-57
2021/07/28 01:56:33;;;;;;;14.98;6.53;;;;;;;;;;5095381;28;20357;-58
2021/07/28 01:58:58;;;;;;;10.95;5.95;;;;;;;;;;5090766;28;20028;-58
2021/07/28 02:01:23;;;;;;;10.50;6.33;;;;;;;;;;5075314;28;20040;-58
2021/07/28 02:03:48;;;;;;;12.55;6.10;;;;;;;;;;5075288;28;20254;-58
2021/07/28 02:06:14;;;;;;;12.75;6.68;;;;;;;;;;5074610;28;20024;-57
2021/07/28 02:08:39;;;;;;;13.10;6.05;;;;;;;;;;5074850;28;20020;-57
2021/07/28 02:11:04;;;;;;;10.40;5.82;;;;;;;;;;5093408;28;20415;-57
2021/07/28 02:13:29;;;;;;;10.23;5.65;;;;;;;;;;5095097;28;20422;-58
2021/07/28 02:15:55;;;;;;;10.63;5.40;;;;;;;;;;5085039;28;20096;-58
2021/07/28 02:18:20;;;;;;;13.43;5.50;;;;;;;;;;5074753;28;20301;-58
2021/07/28 02:20:45;;;;;;;11.35;6.03;;;;;;;;;;5074891;28;20033;-58
2021/07/28 02:23:11;;;;;;;11.70;5.07;;;;;;;;;;5074551;28;20044;-58
2021/07/28 02:25:36;;;;;;;10.98;5.78;;;;;;;;;;5074340;28;20278;-56
2021/07/28 02:28:01;;;;;;;11.20;5.75;;;;;;;;;;5082245;28;20046;-58
2021/07/28 02:30:27;;;;;;;14.27;6.40;;;;;;;;;;5094807;28;20511;-57
2021/07/28 02:32:52;;;;;;;12.13;6.05;;;;;;;;;;5094881;28;20024;-57
2021/07/28 02:35:17;;;;;;;10.27;5.53;;;;;;;;;;5094423;28;20105;-58
2021/07/28 02:37:43;;;;;;;8.73;5.40;;;;;;;;;;5094732;28;20024;-58
2021/07/28 02:40:10;;;;;;;13.27;5.95;;;;;;;;;;5094086;28;20051;-58
2021/07/28 02:42:35;;;;;;;10.88;5.40;;;;;;;;;;5089143;28;20109;-59
2021/07/28 02:45:00;;;;;;;9.52;5.53;;;;;;;;;;5074163;28;20156;-57
2021/07/28 02:47:25;;;;;;;9.38;4.80;;;;;;;;;;5074338;28;20052;-57
2021/07/28 02:49:51;;;;;;;10.27;5.60;;;;;;;;;;5085175;28;20027;-58
2021/07/28 02:52:16;;;;;;;12.63;5.30;;;;;;;;;;5094084;28;20078;-58
2021/07/28 02:54:41;;;;;;;10.55;5.40;;;;;;;;;;5094669;28;20040;-58
2021/07/28 02:57:06;;;;;;;11.35;5.90;;;;;;;;;;5093051;28;20055;-58
2021/07/28 02:59:32;;;;;;;11.02;5.50;;;;;;;;;;5090248;28;20529;-58
2021/07/28 03:01:57;;;;;;;10.77;5.03;;;;;;;;;;5093872;28;20384;-58
2021/07/28 03:04:22;;;;;;;11.48;5.25;;;;;;;;;;5094193;28;20635;-58
2021/07/28 03:06:47;;;;;;;9.27;4.83;;;;;;;;;;5094132;28;20035;-58
2021/07/28 03:09:13;;;;;;;11.73;5.22;;;;;;;;;;5093790;28;20337;-57
2021/07/28 03:11:38;;;;;;;12.95;4.88;;;;;;;;;;5077872;28;20017;-58
2021/07/28 03:14:04;;;;;;;10.65;5.15;;;;;;;;;;5073681;28;20067;-58
2021/07/28 03:16:29;;;;;;;13.43;5.18;;;;;;;;;;5073615;28;20016;-58
2021/07/28 03:18:54;;;;;;;9.52;5.10;;;;;;;;;;5073223;28;20440;-58
2021/07/28 03:21:19;;;;;;;12.95;5.40;;;;;;;;;;5073596;28;20507;-57
2021/07/28 03:23:45;;;;;;;12.20;5.70;;;;;;;;;;5073486;28;20354;-57
2021/07/28 03:26:10;;;;;;;11.45;5.72;;;;;;;;;;5086273;28;20055;-58
2021/07/28 03:28:35;;;;;;;12.35;5.55;;;;;;;;;;5093869;28;20073;-58
2021/07/28 03:31:00;;;;;;;10.50;5.65;;;;;;;;;;5093484;28;20020;-57
2021/07/28 03:33:26;;;;;;;10.75;5.60;;;;;;;;;;5093784;28;20154;-58
2021/07/28 03:35:51;;;;;;;11.93;5.88;;;;;;;;;;5093646;28;20384;-56
2021/07/28 03:38:16;;;;;;;14.82;6.00;;;;;;;;;;5087186;28;20392;-58
2021/07/28 03:40:42;;;;;;;12.52;5.35;;;;;;;;;;5073358;28;20036;-58
2021/07/28 03:43:07;;;;;;;10.85;5.38;;;;;;;;;;5073466;28;20031;-58
2021/07/28 03:45:32;;;;;;;10.95;5.50;;;;;;;;;;5073633;28;20024;-58
2021/07/28 03:47:58;;;;;;;11.82;5.13;;;;;;;;;;5073288;28;20023;-57
2021/07/28 03:50:23;;;;;;;12.20;5.10;;;;;;;;;;5089648;28;20021;-58
2021/07/28 03:52:49;;;;;;;10.02;5.15;;;;;;;;;;5093586;28;20039;-58
2021/07/28 03:55:14;;;;;;;9.55;4.85;;;;;;;;;;5093371;28;20031;-58
2021/07/28 03:57:39;;;;;;;12.75;5.47;;;;;;;;;;5093368;28;20437;-58
2021/07/28 04:00:05;;;;;;;13.63;5.22;;;;;;;;;;5093080;28;20497;-58
2021/07/28 04:02:31;;;;;;;13.30;5.60;;;;;;;;;;5093765;28;20496;-58
2021/07/28 04:04:56;;;;;;;12.05;4.95;;;;;;;;;;5077959;28;20048;-58
2021/07/28 04:07:21;;;;;;;9.37;4.87;;;;;;;;;;5073477;28;20150;-57
2021/07/28 04:09:47;;;;;;;11.85;5.32;;;;;;;;;;5076086;28;20328;-57
2021/07/28 04:12:12;;;;;;;10.27;5.47;;;;;;;;;;5076961;28;20027;-58
2021/07/28 04:14:37;;;;;;;11.13;4.72;;;;;;;;;;5074905;28;20111;-55
2021/07/28 04:17:02;;;;;;;12.13;5.53;;;;;;;;;;5094507;28;20142;-56
2021/07/28 04:19:28;;;;;;;15.27;5.60;;;;;;;;;;5089785;28;20369;-58
2021/07/28 04:21:53;;;;;;;10.15;5.40;;;;;;;;;;5076526;28;20086;-57
2021/07/28 04:24:18;;;;;;;9.75;5.10;;;;;;;;;;5076774;28;20017;-57
2021/07/28 04:26:43;;;;;;;13.00;5.75;;;;;;;;;;5076448;28;20060;-55
2021/07/28 04:29:09;;;;;;;14.23;5.50;;;;;;;;;;5089638;28;20095;-57
2021/07/28 04:31:34;;;;;;;14.95;5.63;;;;;;;;;;5095825;28;20304;-56
2021/07/28 04:33:59;;;;;;;13.47;7.80;;;;;;;;;;5096532;28;20483;-57
2021/07/28 04:36:24;;;;;;;10.03;5.43;;;;;;;;;;5096577;28;20745;-57
2021/07/28 04:38:50;;;;;;;12.70;5.72;;;;;;;;;;5087697;28;20745;-58
2021/07/28 04:41:15;;;;;;;13.18;5.40;;;;;;;;;;5096318;28;20036;-56
2021/07/28 04:43:41;;;;;;;12.98;5.90;;;;;;;;;;5096638;28;20039;-58
2021/07/28 04:46:06;;;;;;;13.02;5.35;;;;;;;;;;5096604;28;20024;-57
2021/07/28 04:48:31;;;;;;;13.10;5.30;;;;;;;;;;5084030;28;20020;-57
2021/07/28 04:50:57;;;;;;;11.60;5.57;;;;;;;;;;5074608;28;20107;-57
2021/07/28 04:53:28;;;;;;;11.45;5.78;;;;;;;;;;5073946;28;20025;-57
2021/07/28 04:55:53;;;;;;;11.80;5.18;;;;;;;;;;5095080;28;20020;-56
2021/07/28 04:58:19;;;;;;;10.48;5.47;;;;;;;;;;5091562;28;20054;-57
2021/07/28 05:00:44;;;;;;;11.32;5.00;;;;;;;;;;5085016;28;20035;-58
2021/07/28 05:03:10;;;;;;;11.85;5.65;;;;;;;;;;5082845;28;20024;-57
2021/07/28 05:05:35;;;;;;;12.07;5.15;;;;;;;;;;5083845;28;20017;-56
2021/07/28 05:08:00;;;;;;;12.70;5.85;;;;;;;;;;5082852;28;20023;-56
2021/07/28 05:10:25;;;;;;;12.52;5.43;;;;;;;;;;5086449;28;20052;-56
2021/07/28 05:12:51;;;;;;;13.70;5.43;;;;;;;;;;5083696;28;20465;-55
2021/07/28 05:15:16;;;;;;;9.93;5.75;;;;;;;;;;5084465;28;20047;-57
2021/07/28 05:17:42;;;;;;;12.45;5.60;;;;;;;;;;5082925;28;20431;-56
2021/07/28 05:20:08;;;;;;;13.07;6.22;;;;;;;;;;5078550;28;20023;-57
2021/07/28 05:22:33;;;;;;;10.70;5.55;;;;;;;;;;5075597;28;20032;-56
2021/07/28 05:24:58;;;;;;;13.53;5.73;;;;;;;;;;5074896;28;20023;-58
2021/07/28 05:27:23;;;;;;;15.13;5.50;;;;;;;;;;5074895;28;20377;-55
2021/07/28 05:29:49;;;;;;;13.65;5.50;;;;;;;;;;5089286;28;20396;-54
2021/07/28 05:32:14;;;;;;;11.40;5.60;;;;;;;;;;5095122;28;20023;-54
2021/07/28 05:34:39;;;;;;;14.18;5.30;;;;;;;;;;5092910;28;20105;-57
2021/07/28 05:37:05;;;;;;;13.63;5.82;;;;;;;;;;5083511;28;20024;-55
2021/07/28 05:39:30;;;;;;;12.27;5.40;;;;;;;;;;5086361;28;20028;-56
2021/07/28 05:41:57;;;;;;;11.70;5.20;;;;;;;;;;5076089;28;20028;-56
2021/07/28 05:44:22;;;;;;;12.98;5.55;;;;;;;;;;5085786;28;20305;-57
2021/07/28 05:46:47;;;;;;;10.70;4.78;;;;;;;;;;5083166;28;20388;-57
2021/07/28 05:49:13;;;;;;;13.55;5.47;;;;;;;;;;5077015;28;20492;-56
2021/07/28 05:51:38;;;;;;;11.35;5.57;;;;;;;;;;5080557;28;20020;-56
2021/07/28 05:54:03;;;;;;;13.90;5.00;;;;;;;;;;5083336;28;20009;-58
2021/07/28 05:56:28;;;;;;;12.85;5.35;;;;;;;;;;5073200;28;20354;-58
2021/07/28 05:58:54;;;;;;;15.65;5.53;;;;;;;;;;5072137;28;20013;-56
2021/07/28 06:01:20;;;;;;;12.63;5.32;;;;;;;;;;5072287;28;20036;-57
2021/07/28 06:03:45;;;;;;;13.98;5.68;;;;;;;;;;5054007;28;20051;-57
2021/07/28 06:06:11;;;;;;;12.02;5.57;;;;;;;;;;5085086;28;20016;-55
2021/07/28 06:08:36;;;;;;;13.55;5.30;;;;;;;;;;5086491;28;20465;-56
2021/07/28 06:11:01;;;;;;;11.35;5.70;;;;;;;;;;5074273;28;20021;-56
2021/07/28 06:13:26;;;;;;;16.23;5.97;;;;;;;;;;5073823;28;20024;-53
2021/07/28 06:15:52;;;;;;;11.17;5.23;;;;;;;;;;5073678;28;20017;-55
2021/07/28 06:18:17;;;;;;;12.88;5.95;;;;;;;;;;5073967;28;20308;-56
2021/07/28 06:20:42;;;;;;;13.50;5.75;;;;;;;;;;5073275;28;20033;-54
2021/07/28 06:23:07;;;;;;;13.00;4.88;;;;;;;;;;5069173;28;20008;-54
2021/07/28 06:25:33;;;;;;;12.13;5.60;;;;;;;;;;5091616;28;20047;-55
2021/07/28 06:27:58;;;;;;;15.32;5.53;;;;;;;;;;5077282;28;20030;-54
2021/07/28 06:30:23;;;;;;;12.80;5.38;;;;;;;;;;5073794;28;20040;-56
2021/07/28 06:32:48;;;;;;;13.18;5.63;;;;;;;;;;5072452;28;20070;-54
2021/07/28 06:35:14;;;;;;;13.77;5.43;;;;;;;;;;5073298;28;20027;-56
2021/07/28 06:37:39;;;;;;;14.98;5.50;;;;;;;;;;5072852;28;20308;-56
2021/07/28 06:40:05;;;;;;;16.38;5.57;;;;;;;;;;5073449;28;20085;-55
2021/07/28 06:42:30;;;;;;;11.68;5.03;;;;;;;;;;5072923;28;20422;-54
2021/07/28 06:44:55;;;;;;;9.83;5.57;;;;;;;;;;5073368;28;20488;-52
2021/07/28 06:47:20;;;;;;;15.32;5.25;;;;;;;;;;5073428;28;20427;-55
2021/07/28 06:49:46;;;;;;;13.00;5.60;;;;;;;;;;5088571;28;20024;-54
2021/07/28 06:52:11;;;;;;;14.00;5.60;;;;;;;;;;5089409;28;20262;-56
2021/07/28 06:54:36;;;;;;;13.40;5.80;;;;;;;;;;5078236;28;20024;-56
2021/07/28 06:57:02;;;;;;;12.93;5.40;;;;;;;;;;5092906;28;20346;-53
2021/07/28 06:59:27;;;;;;;15.02;5.57;;;;;;;;;;5085428;28;20107;-56
2021/07/28 07:01:52;;;;;;;11.70;5.60;;;;;;;;;;5072986;28;20111;-54
2021/07/28 07:04:18;;;;;;;13.40;5.78;;;;;;;;;;5072216;28;20044;-57
2021/07/28 07:08:16;;;;;;;14.43;6.13;;;;;;;58.72;7.63;97230.91;5131015;27;20123;-53
2021/07/28 07:10:41;;;;;;;18.65;5.80;;;;;;;58.83;7.09;97224.88;5130392;28;20027;-55
2021/07/28 07:13:06;;;;;;;11.10;5.60;;;;;;;59.59;6.91;97235.41;5131008;28;20026;-55
2021/07/28 07:15:32;;;;;;;10.35;5.55;;;;;;;60.16;6.62;97235.94;5112323;28;20030;-55
2021/07/28 07:17:57;;;;;;;15.52;5.90;;;;;;;59.92;6.31;97236.16;5126524;28;20063;-55
2021/07/28 07:20:24;;;;;;;13.45;5.70;;;;;;;61.36;5.40;97247.59;5115041;28;20028;-57
2021/07/28 07:22:49;;;;;;;13.35;5.70;;;;;;;61.29;5.47;97248.66;5110339;28;20028;-55
2021/07/28 07:25:15;;;;;;;15.00;6.50;;;;;;;60.10;6.52;97237.75;5122605;28;20428;-56
2021/07/28 07:27:42;;;;;;;12.75;6.07;;;;;;;60.89;6.30;97240.38;5116844;28;20027;-56
2021/07/28 07:30:08;;;;;;;14.80;6.07;;;;;;;60.55;6.59;97248.44;5113639;28;20052;-56
2021/07/28 07:32:34;;;;;;;14.98;6.30;;;;;;;61.80;5.32;97250.66;5114701;28;20027;-56
2021/07/28 07:34:59;;;;;;;14.20;6.15;;;;;;;62.07;5.15;97255.09;5109961;28;20464;-56
2021/07/28 07:37:25;;;;;;;14.02;5.85;;;;;;;61.02;5.92;97260.72;5090186;28;20430;-57
2021/07/28 07:39:50;;;;;;;16.70;6.40;;;;;;;60.89;6.30;97264.44;5089793;28;20024;-54
2021/07/28 07:42:16;;;;;;;13.57;6.25;;;;;;;61.46;5.95;97266.72;5090031;28;20031;-58
2021/07/28 07:44:45;;;;;;;13.38;6.03;;;;;;;62.01;6.01;97268.59;5108052;28;20024;-55
2021/07/28 07:47:11;;;;;;;14.07;6.30;;;;;;;61.80;5.58;97268.09;5107660;28;20115;-57
2021/07/28 07:49:37;;;;;;;13.88;6.78;;;;;;;61.96;6.07;97266.28;5107548;28;20531;-56
2021/07/28 07:52:02;;;;;;;12.88;6.40;;;;;;;61.88;5.38;97268.66;5089541;28;20031;-56
2021/07/28 07:54:28;;;;;;;16.10;6.53;;;;;;;62.05;5.63;97269.25;5109688;28;20055;-57
2021/07/28 07:56:53;;;;;;;13.85;6.53;;;;;;;61.82;5.59;97273.44;5110880;27;20062;-48
2021/07/28 07:59:19;;;;;;;18.60;7.18;;;;;;;59.55;7.44;97275.28;5146784;27;20027;-55
2021/07/28 08:01:44;;;;;;;15.02;7.00;;;;;;;60.48;6.50;97274.81;5139935;27;20110;-50
2021/07/28 08:04:10;;;;;;;14.55;6.88;;;;;;;61.85;6.07;97284.97;5139287;27;20027;-51
2021/07/28 08:06:35;;;;;;;15.40;7.05;;;;;;;62.42;6.29;97281.22;5096509;27;20093;-53
2021/07/28 08:09:01;;;;;;;14.93;6.45;;;;;;;63.11;5.59;97284.38;5126990;27;20034;-53
2021/07/28 08:11:26;;;;;;;15.07;6.80;;;;;;;63.17;5.12;97280.34;5128537;28;20034;-49
2021/07/28 08:13:51;;;;;;;19.33;7.25;;;;;;;63.35;4.98;97281.72;5129887;28;20031;-52
2021/07/28 08:16:19;;;;;;;14.70;7.15;;;;;;;64.07;4.99;97272.81;5110808;28;20031;-54
2021/07/28 08:18:45;;;;;;;16.73;7.10;;;;;;;63.50;5.29;97271.09;5120520;28;20447;-52
2021/07/28 08:21:11;;;;;;;14.30;6.70;;;;;;;63.70;4.91;97261.06;5115449;28;20027;-54
2021/07/28 08:23:38;;;;;;;14.60;6.93;;;;;;;64.06;4.43;97251.53;5098283;28;20096;-50
2021/07/28 08:26:03;;;;;;;13.50;6.93;;;;;;;63.13;4.76;97253.44;5098049;28;20055;-51
2021/07/28 08:28:29;;;;;;;15.15;7.43;;;;;;;64.96;4.39;97260.31;5098552;28;20059;-56
2021/07/28 08:30:57;;;;;;;15.10;7.50;;;;;;;63.11;5.04;97256.03;5116422;28;20044;-56
2021/07/28 08:33:24;;;;;;;14.98;7.65;;;;;;;62.52;5.36;97256.72;5098555;28;20027;-55
2021/07/28 08:35:49;;;;;;;13.85;7.10;;;;;;;63.92;5.21;97249.25;5115208;28;20030;-56
2021/07/28 08:38:14;;;;;;;15.52;7.55;;;;;;;64.04;3.93;97254.13;5098184;28;20023;-50
2021/07/28 08:40:41;;;;;;;17.55;6.88;;;;;;;63.40;5.48;97254.84;5116462;28;20383;-56
2021/07/28 08:43:07;;;;;;;17.27;6.82;;;;;;;63.79;4.77;97255.28;5116019;28;20031;-54
2021/07/28 08:45:33;;;;;;;15.70;6.70;;;;;;;64.70;4.22;97257.78;5116259;28;20061;-54
2021/07/28 08:47:59;;;;;;;13.93;6.38;;;;;;;63.69;5.23;97253.59;5115836;28;20514;-56
2021/07/28 08:50:27;;;;;;;16.38;6.60;;;;;;;62.65;5.15;97252.91;5090101;28;20023;-55
2021/07/28 08:52:52;;;;;;;12.23;6.82;;;;;;;65.12;4.46;97267.84;5124193;27;20498;-51
2021/07/28 08:55:20;;;;;;;12.90;6.38;;;;;;;65.68;4.05;97262.50;5103626;28;20056;-54
2021/07/28 08:57:45;;;;;;;15.32;6.85;;;;;;;64.25;4.80;97260.28;5115655;27;20026;-54
2021/07/28 09:00:12;;;;;;;13.30;6.07;;;;;;;62.81;4.99;97258.47;5131124;27;20024;-50
2021/07/28 09:02:38;;;;;;;15.02;5.80;;;;;;;63.25;5.51;97252.56;5123391;27;20034;-53
2021/07/28 09:05:04;;;;;;;12.13;6.25;;;;;;;63.03;5.36;97246.78;5110816;28;20024;-52
2021/07/28 09:07:36;;;;;;;13.57;6.22;;;;;;;64.45;4.85;97256.84;5130357;27;20039;-53
2021/07/28 09:10:01;;;;;;;11.13;6.05;;;;;;;63.53;4.66;97248.91;5118660;27;20026;-54
2021/07/28 09:12:32;;;;;;;13.30;6.25;;;;;;;64.65;4.61;97252.63;5110791;28;20482;-55
2021/07/28 09:15:01;;;;;;;14.88;6.30;;;;;;;65.55;3.27;97253.97;5125923;27;20023;-54
2021/07/28 09:17:27;;;;;;;13.23;6.40;;;;;;;63.27;4.71;97246.25;5119230;27;20124;-55
2021/07/28 09:19:54;;;;;;;14.38;5.95;;;;;;;64.72;4.43;97237.66;5082705;27;20028;-53
2021/07/28 09:22:20;;;;;;;12.63;6.18;;;;;;;65.13;3.98;97238.13;5124925;27;20115;-54
2021/07/28 09:25:07;;;;;;;13.98;6.13;;;;;;;65.54;3.41;97240.66;5108887;27;20032;-51
2021/07/28 09:27:41;;;;;;;14.15;6.32;;;;;;;63.66;4.76;97234.16;5128977;27;20069;-53
2021/07/28 09:30:08;;;;;;;12.18;6.32;;;;;;;64.98;4.04;97231.38;5099270;27;20115;-54
2021/07/28 09:32:35;;;;;;;12.88;6.38;;;;;;;66.34;3.35;97243.09;5125501;27;20039;-52
2021/07/28 09:35:01;;;;;;;14.25;6.38;;;;;;;64.64;4.61;97233.47;5105953;27;20117;-53
2021/07/28 09:37:27;;;;;;;15.45;6.43;;;;;;;64.65;4.07;97223.41;5117824;27;20025;-53
2021/07/28 09:39:53;;;;;;;13.93;6.07;;;;;;;65.94;3.20;97229.78;5129361;27;20468;-55
2021/07/28 09:42:20;;;;;;;12.75;6.20;;;;;;;65.02;3.84;97229.06;5099957;27;20033;-55
2021/07/28 09:44:48;;;;;;;16.05;5.95;;;;;;;64.12;4.14;97233.38;5106587;28;20030;-54
2021/07/28 09:47:21;;;;;;;12.98;5.85;;;;;;;64.50;4.85;97241.59;5127862;27;20575;-53
2021/07/28 09:49:47;;;;;;;14.13;6.30;;;;;;;65.70;3.70;97240.25;5117856;27;20490;-55
2021/07/28 09:52:27;;;;;;;15.35;6.05;;;;;;;66.61;2.54;97244.94;5100813;27;20023;-55
2021/07/28 09:54:57;;;;;;;11.90;5.35;;;;;;;65.06;3.31;97247.28;5101286;27;20022;-54
2021/07/28 09:57:27;;;;;;;11.90;5.95;;;;;;;66.14;2.83;97247.53;5099518;27;20020;-52
2021/07/28 10:00:04;;;;;;;12.43;5.73;;;;;;;63.35;4.98;97241.72;5108318;27;20109;-52
2021/07/28 10:02:30;;;;;;;12.77;5.63;;;;;;;64.55;4.08;97240.94;5087298;28;20052;-55
2021/07/28 10:04:55;;;;;;;13.13;5.90;;;;;;;65.33;3.09;97254.28;5103106;27;20459;-51
2021/07/28 10:07:22;;;;;;;12.13;5.90;;;;;;;67.65;1.88;97266.53;5113079;27;20578;-54
2021/07/28 10:10:02;;;;;;;15.07;6.20;;;;;;;67.41;2.73;97267.53;5130448;27;20110;-54
2021/07/28 10:12:28;;;;;;;12.68;5.55;;;;;;;68.46;2.09;97270.72;5091427;28;20023;-53
2021/07/28 10:14:54;;;;;;;14.05;5.90;;;;;;;66.41;3.17;97269.06;5103828;27;20039;-53
2021/07/28 10:17:20;;;;;;;16.98;6.32;;;;;;;65.52;3.49;97275.47;5096820;28;20536;-55
2021/07/28 10:19:48;;;;;;;14.57;6.13;;;;;;;60.97;5.89;97261.31;5128862;27;20060;-56
2021/07/28 10:22:14;;;;;;;14.27;6.13;;;;;;;61.60;5.36;97260.44;5133877;27;20610;-53
2021/07/28 10:24:39;;;;;;;13.75;6.20;;;;;;;65.04;3.91;97261.56;5119995;27;20043;-52
2021/07/28 10:27:05;;;;;;;16.95;6.25;;;;;;;65.80;3.47;97267.31;5091023;28;20086;-55
2021/07/28 10:29:30;;;;;;;13.70;5.85;;;;;;;65.12;3.27;97262.81;5105971;27;20023;-55
2021/07/28 10:31:56;;;;;;;15.02;5.60;;;;;;;64.34;4.44;97250.75;5116673;27;20016;-56
2021/07/28 10:34:27;;;;;;;15.07;5.70;;;;;;;65.03;3.41;97252.00;5112649;27;20076;-55
2021/07/28 10:36:54;;;;;;;10.68;5.68;;;;;;;64.35;3.51;97240.66;5118561;27;20074;-54
2021/07/28 10:39:46;;;;;;;12.65;6.07;;;;;;;66.48;3.28;97244.44;5122015;27;20028;-56
2021/07/28 10:42:18;;;;;;;14.02;5.82;;;;;;;68.27;2.25;97260.63;5076972;28;20027;-56
2021/07/28 10:45:07;;;;;;;12.48;5.68;;;;;;;67.05;1.92;97230.75;5116816;27;20031;-57
2021/07/28 10:47:35;;;;;;;14.75;5.80;;;;;;;65.18;2.75;97234.56;5104779;28;20110;-55
2021/07/28 10:50:02;;;;;;;14.77;6.03;;;;;;;67.57;1.96;97230.16;5107869;27;20058;-57
2021/07/28 10:52:36;;;;;;;11.40;5.93;;;;;;;65.32;3.06;97217.56;5117520;27;20034;-53
2021/07/28 10:55:02;;;;;;;14.63;6.15;;;;;;;64.12;3.22;97213.75;5090244;28;20042;-55
2021/07/28 10:57:34;;;;;;;13.75;5.55;;;;;;;62.90;4.78;97206.06;5111372;27;20032;-57
2021/07/28 11:00:06;;;;;;;12.23;5.32;;;;;;;62.63;4.37;97195.13;5107581;28;20028;-55
2021/07/28 11:02:57;;;;;;;12.68;5.35;;;;;;;64.55;3.01;97194.19;5094640;28;20027;-57
2021/07/28 11:05:35;;;;;;;11.55;5.30;;;;;;;65.70;2.46;97190.50;5091094;28;20035;-56
2021/07/28 11:10:32;;;;;;;12.38;5.60;;;;;;;67.15;2.66;97182.41;5093128;28;20035;-57
2021/07/28 11:12:59;;;;;;;16.63;7.47;;;;;;;66.99;2.26;97177.88;5092364;28;20039;-57
2021/07/28 11:15:24;;;;;;;12.50;5.53;;;;;;;66.88;2.23;97186.50;5092640;28;20070;-58
2021/07/28 11:17:54;;;;;;;13.50;5.45;;;;;;;65.44;2.57;97171.88;5092241;28;20027;-57
2021/07/28 11:20:32;;;;;;;14.68;5.75;;;;;;;66.64;2.45;97173.63;5092759;28;20030;-58
2021/07/28 11:23:19;;;;;;;18.38;5.97;;;;;;;67.90;2.04;97193.78;5092440;28;20740;-57
2021/07/28 11:25:44;;;;;;;12.95;5.85;;;;;;;67.61;1.64;97184.63;5095397;28;20384;-57
2021/07/28 11:28:10;;;;;;;15.93;5.65;;;;;;;67.98;2.34;97183.19;5104303;28;20032;-58
2021/07/28 11:30:35;;;;;;;16.40;6.18;;;;;;;67.71;2.12;97175.66;5105601;28;20056;-56
2021/07/28 11:33:31;;;;;;;14.40;6.28;;;;;;;67.56;2.53;97170.69;5107116;28;20035;-57
2021/07/28 11:35:57;;;;;;;16.30;6.47;;;;;;;67.19;2.28;97162.47;5081894;28;20047;-56
2021/07/28 11:38:41;;;;;;;15.43;5.85;;;;;;;66.46;3.01;97157.03;5107115;28;20062;-58
2021/07/28 11:41:10;;;;;;;10.35;5.68;;;;;;;65.40;3.05;97148.63;5100432;28;20474;-58
2021/07/28 11:43:41;;;;;;;14.88;6.13;;;;;;;67.09;2.91;97150.09;5103402;28;20475;-58
2021/07/28 11:46:18;;;;;;;16.20;6.20;;;;;;;67.46;2.97;97154.56;5061538;28;20476;-57
2021/07/28 11:48:52;;;;;;;12.20;5.57;;;;;;;67.26;2.38;97153.22;5100581;28;20454;-57
2021/07/28 11:51:32;;;;;;;15.77;6.50;;;;;;;67.60;2.06;97161.66;5101930;28;20405;-57
2021/07/28 11:54:14;;;;;;;15.57;6.15;;;;;;;67.41;2.53;97167.03;5099841;28;20106;-57
